Time;durP1;ratioP1;P1;durP2;ratioP2;P2;SDS_P1;SDS_P2;PMS_P1;PMS_P2;Temp;Humidity;BMP_temperature;BMP_pressure;BME280_temperature;BME280_humidity;BME280_pressure;Samples;Min_cycle;Max_cycle;Signal;HPM_P1;HPM_P2
2023/02/27 00:01:39;;;;;;;;;;;;;;;;;;4230797;28;19982;-37
2023/02/27 00:03:40;;;;;;;;;;;;;;;;;;4248376;27;20378;-36
2023/02/27 00:05:41;;;;;;;;;;;;;;;;;;4230257;28;19969;-36
2023/02/27 00:07:42;;;;;;;;;;;;;;;;;;4238278;27;19980;-35
2023/02/27 00:09:43;;;;;;;;;;;;;;;;;;4216689;28;19923;-37
2023/02/27 00:11:45;;;;;;;;;;;;;;;;;;4241476;27;19915;-36
2023/02/27 00:13:46;;;;;;;;;;;;;;;;;;4245685;27;20441;-36
2023/02/27 00:15:48;;;;;;;;;;;;;;;;;;4244134;27;20332;-35
2023/02/27 00:17:48;;;;;;;;;;;;;;;;;;4241166;27;19973;-35
2023/02/27 00:19:50;;;;;;;;;;;;;;;;;;4248227;27;19915;-36
2023/02/27 00:21:51;;;;;;;;;;;;;;;;;;4248922;27;19923;-35
2023/02/27 00:23:52;;;;;;;;;;;;;;;;;;4248375;27;19949;-38
2023/02/27 00:25:54;;;;;;;;;;;;;;;;;;4240807;27;19943;-35
2023/02/27 00:27:55;;;;;;;;;;;;;;;;;;4230647;28;19922;-36
2023/02/27 00:29:56;;;;;;;;;;;;;;;;;;4237740;27;19923;-36
2023/02/27 00:31:59;;;;;;;;;;;;;;;;;;4237809;27;19919;-36
2023/02/27 00:34:00;;;;;;;;;;;;;;;;;;4237735;27;19916;-36
2023/02/27 00:36:01;;;;;;;;;;;;;;;;;;4246930;27;19920;-35
2023/02/27 00:38:02;;;;;;;;;;;;;;;;;;4240323;27;19968;-36
2023/02/27 00:40:06;;;;;;;;;;;;;;;;;;4196662;28;19916;-36
2023/02/27 00:42:07;;;;;;;;;;;;;;;;;;4231798;28;19973;-36
2023/02/27 00:44:08;;;;;;;;;;;;;;;;;;4238548;27;19919;-37
2023/02/27 00:46:09;;;;;;;;;;;;;;;;;;4248630;27;19968;-36
2023/02/27 00:48:10;;;;;;;;;;;;;;;;;;4228135;28;20675;-36
2023/02/27 00:50:12;;;;;;;;;;;;;;;;;;4242580;27;20290;-36
2023/02/27 00:52:13;;;;;;;;;;;;;;;;;;4246830;27;20359;-36
2023/02/27 00:54:13;;;;;;;;;;;;;;;;;;4239154;27;19916;-35
2023/02/27 00:56:15;;;;;;;;;;;;;;;;;;4232772;27;20291;-37
2023/02/27 00:58:15;;;;;;;;;;;;;;;;;;4223440;28;20006;-36
2023/02/27 01:00:17;;;;;;;;;;;;;;;;;;4247560;27;19919;-35
2023/02/27 01:02:17;;;;;;;;;;;;;;;;;;4246080;27;19923;-36
2023/02/27 01:04:18;;;;;;;;;;;;;;;;;;4239926;27;19923;-36
2023/02/27 01:06:19;;;;;;;;;;;;;;;;;;4240905;27;19923;-36
2023/02/27 01:08:21;;;;;;;;;;;;;;;;;;4230083;28;20260;-36
2023/02/27 01:10:23;;;;;;;;;;;;;;;;;;4239382;27;19915;-35
2023/02/27 01:12:23;;;;;;;;;;;;;;;;;;4205970;28;19969;-36
2023/02/27 01:14:25;;;;;;;;;;;;;;;;;;4238727;27;19960;-36
2023/02/27 01:16:25;;;;;;;;;;;;;;;;;;4242451;27;19973;-35
2023/02/27 01:18:27;;;;;;;;;;;;;;;;;;4240749;27;19915;-36
2023/02/27 01:20:29;;;;;;;;;;;;;;;;;;4246034;27;19915;-36
2023/02/27 01:22:31;;;;;;;;;;;;;;;;;;4240135;27;19927;-35
2023/02/27 01:24:32;;;;;;;;;;;;;;;;;;4219234;28;19920;-36
2023/02/27 01:26:33;;;;;;;;;;;;;;;;;;4230651;28;19945;-37
2023/02/27 01:28:34;;;;;;;;;;;;;;;;;;4227164;28;20399;-36
2023/02/27 01:30:35;;;;;;;;;;;;;;;;;;4239758;27;19915;-36
2023/02/27 01:32:37;;;;;;;;;;;;;;;;;;4240352;27;19929;-36
2023/02/27 01:34:38;;;;;;;;;;;;;;;;;;4245790;27;19968;-37
2023/02/27 01:36:39;;;;;;;;;;;;;;;;;;4246314;27;19923;-35
2023/02/27 01:38:40;;;;;;;;;;;;;;;;;;4240361;27;19919;-37
2023/02/27 01:40:42;;;;;;;;;;;;;;;;;;4247412;27;19926;-35
2023/02/27 01:42:43;;;;;;;;;;;;;;;;;;4247835;27;20358;-36
2023/02/27 01:44:43;;;;;;;;;;;;;;;;;;4240178;27;20349;-35
2023/02/27 01:46:44;;;;;;;;;;;;;;;;;;4247469;27;19922;-36
2023/02/27 01:48:46;;;;;;;;;;;;;;;;;;4247562;27;19916;-36
2023/02/27 01:50:47;;;;;;;;;;;;;;;;;;4241439;27;19965;-37
2023/02/27 01:52:48;;;;;;;;;;;;;;;;;;4244572;27;19923;-37
2023/02/27 01:54:49;;;;;;;;;;;;;;;;;;4240251;27;19919;-36
2023/02/27 01:56:51;;;;;;;;;;;;;;;;;;4240388;27;20308;-35
2023/02/27 01:58:52;;;;;;;;;;;;;;;;;;4236197;27;20267;-37
2023/02/27 02:00:53;;;;;;;;;;;;;;;;;;4241903;27;19915;-35
2023/02/27 02:02:54;;;;;;;;;;;;;;;;;;4239938;27;19968;-36
2023/02/27 02:04:55;;;;;;;;;;;;;;;;;;4239970;27;19972;-36
2023/02/27 02:06:57;;;;;;;;;;;;;;;;;;4228847;28;20286;-36
2023/02/27 02:08:57;;;;;;;;;;;;;;;;;;4246992;27;20002;-37
2023/02/27 02:10:59;;;;;;;;;;;;;;;;;;4244985;27;19953;-36
2023/02/27 02:13:00;;;;;;;;;;;;;;;;;;4232716;28;19915;-36
2023/02/27 02:15:01;;;;;;;;;;;;;;;;;;4246677;27;19915;-35
2023/02/27 02:17:02;;;;;;;;;;;;;;;;;;4222578;28;20336;-36
2023/02/27 02:19:03;;;;;;;;;;;;;;;;;;4233101;27;19969;-36
2023/02/27 02:21:05;;;;;;;;;;;;;;;;;;4232914;28;19931;-37
2023/02/27 02:23:06;;;;;;;;;;;;;;;;;;4229203;28;19916;-36
2023/02/27 02:25:07;;;;;;;;;;;;;;;;;;4239709;28;19958;-35
2023/02/27 02:27:08;;;;;;;;;;;;;;;;;;4240249;28;20378;-36
2023/02/27 02:29:09;;;;;;;;;;;;;;;;;;4240098;28;19919;-36
2023/02/27 02:31:10;;;;;;;;;;;;;;;;;;4240191;28;19915;-37
2023/02/27 02:33:10;;;;;;;;;;;;;;;;;;4246167;28;20472;-35
2023/02/27 02:35:12;;;;;;;;;;;;;;;;;;4240253;28;20333;-36
2023/02/27 02:37:12;;;;;;;;;;;;;;;;;;4238135;28;19919;-36
2023/02/27 02:39:13;;;;;;;;;;;;;;;;;;4233531;28;19968;-36
2023/02/27 02:41:15;;;;;;;;;;;;;;;;;;4239976;28;19923;-36
2023/02/27 02:43:16;;;;;;;;;;;;;;;;;;4202142;28;20261;-35
2023/02/27 02:45:18;;;;;;;;;;;;;;;;;;4243596;28;19968;-36
2023/02/27 02:47:18;;;;;;;;;;;;;;;;;;4246664;28;20304;-35
2023/02/27 02:49:20;;;;;;;;;;;;;;;;;;4228444;28;19923;-37
2023/02/27 02:51:21;;;;;;;;;;;;;;;;;;4221783;28;19961;-35
2023/02/27 02:53:23;;;;;;;;;;;;;;;;;;4233291;28;19915;-36
2023/02/27 02:55:25;;;;;;;;;;;;;;;;;;4213158;28;19923;-35
2023/02/27 02:57:26;;;;;;;;;;;;;;;;;;4228593;28;19927;-36
2023/02/27 02:59:27;;;;;;;;;;;;;;;;;;4237164;28;19959;-35
2023/02/27 03:01:28;;;;;;;;;;;;;;;;;;4241587;27;19920;-36
2023/02/27 03:03:30;;;;;;;;;;;;;;;;;;4248951;27;19919;-36
2023/02/27 03:05:32;;;;;;;;;;;;;;;;;;4230336;28;19969;-37
2023/02/27 03:07:34;;;;;;;;;;;;;;;;;;4231375;28;19920;-36
2023/02/27 03:09:35;;;;;;;;;;;;;;;;;;4248659;27;19919;-35
2023/02/27 03:11:37;;;;;;;;;;;;;;;;;;4241828;27;19924;-36
2023/02/27 03:13:38;;;;;;;;;;;;;;;;;;4243047;27;19930;-36
2023/02/27 03:15:39;;;;;;;;;;;;;;;;;;4231613;28;19930;-37
2023/02/27 03:17:42;;;;;;;;;;;;;;;;;;4228378;28;19922;-37
2023/02/27 03:19:43;;;;;;;;;;;;;;;;;;4219964;28;20402;-36
2023/02/27 03:21:44;;;;;;;;;;;;;;;;;;4231363;28;20370;-37
2023/02/27 03:23:45;;;;;;;;;;;;;;;;;;4219707;28;19916;-35
2023/02/27 03:25:46;;;;;;;;;;;;;;;;;;4234097;27;19915;-36
2023/02/27 03:27:47;;;;;;;;;;;;;;;;;;4221879;28;19920;-36
2023/02/27 03:29:48;;;;;;;;;;;;;;;;;;4219984;28;19974;-37
2023/02/27 03:31:49;;;;;;;;;;;;;;;;;;4227361;28;19981;-36
2023/02/27 03:33:50;;;;;;;;;;;;;;;;;;4239631;27;19915;-36
2023/02/27 03:35:52;;;;;;;;;;;;;;;;;;4224419;28;20370;-36
2023/02/27 03:37:53;;;;;;;;;;;;;;;;;;4242998;27;20271;-37
2023/02/27 03:39:54;;;;;;;;;;;;;;;;;;4248672;27;19923;-36
2023/02/27 03:41:57;;;;;;;;;;;;;;;;;;4231317;28;19945;-37
2023/02/27 03:44:25;;;;;;;;;;;;;;;;;;4227850;28;19923;-35
2023/02/27 03:46:26;;;;;;;;;;;;;;;;;;4248926;27;19972;-36
2023/02/27 03:48:27;;;;;;;;;;;;;;;;;;4241595;27;20293;-36
2023/02/27 03:50:28;;;;;;;;;;;;;;;;;;4228443;28;19980;-36
2023/02/27 03:52:29;;;;;;;;;;;;;;;;;;4226345;28;19927;-36
2023/02/27 03:54:30;;;;;;;;;;;;;;;;;;4223772;28;19920;-36
2023/02/27 03:56:31;;;;;;;;;;;;;;;;;;4242377;27;19988;-35
2023/02/27 03:58:33;;;;;;;;;;;;;;;;;;4230261;28;19915;-35
2023/02/27 04:00:34;;;;;;;;;;;;;;;;;;4225495;28;19915;-36
2023/02/27 04:02:36;;;;;;;;;;;;;;;;;;4231098;28;19965;-36
2023/02/27 04:04:39;;;;;;;;;;;;;;;;;;4217337;28;19920;-36
2023/02/27 04:07:23;;;;;;;;;;;;;;;;;;4227886;28;19924;-36
2023/02/27 04:09:24;;;;;;;;;;;;;;;;;;4241191;27;19915;-36
2023/02/27 04:11:26;;;;;;;;;;;;;;;;;;4241342;27;19922;-36
2023/02/27 04:13:27;;;;;;;;;;;;;;;;;;4241912;27;19919;-38
2023/02/27 04:15:28;;;;;;;;;;;;;;;;;;4243824;27;20379;-36
2023/02/27 04:17:29;;;;;;;;;;;;;;;;;;4230214;28;19923;-36
2023/02/27 04:19:30;;;;;;;;;;;;;;;;;;4217991;28;20010;-35
2023/02/27 04:21:31;;;;;;;;;;;;;;;;;;4241198;27;19969;-36
2023/02/27 04:23:32;;;;;;;;;;;;;;;;;;4242560;27;19916;-36
2023/02/27 04:25:34;;;;;;;;;;;;;;;;;;4248453;27;19924;-36
2023/02/27 04:27:35;;;;;;;;;;;;;;;;;;4245926;27;19920;-35
2023/02/27 04:29:36;;;;;;;;;;;;;;;;;;4231491;28;19961;-35
2023/02/27 04:31:37;;;;;;;;;;;;;;;;;;4230714;28;20378;-36
2023/02/27 04:33:38;;;;;;;;;;;;;;;;;;4244658;27;20040;-36
2023/02/27 04:35:39;;;;;;;;;;;;;;;;;;4245602;27;19930;-36
2023/02/27 04:37:41;;;;;;;;;;;;;;;;;;4237176;27;19920;-35
2023/02/27 04:39:42;;;;;;;;;;;;;;;;;;4247433;27;19919;-36
2023/02/27 04:41:43;;;;;;;;;;;;;;;;;;4248881;27;19941;-35
2023/02/27 04:43:44;;;;;;;;;;;;;;;;;;4248424;27;19915;-35
2023/02/27 04:45:45;;;;;;;;;;;;;;;;;;4248596;27;20355;-35
2023/02/27 04:47:46;;;;;;;;;;;;;;;;;;4248437;27;19915;-36
2023/02/27 04:49:47;;;;;;;;;;;;;;;;;;4248198;27;19949;-36
2023/02/27 04:51:50;;;;;;;;;;;;;;;;;;4234059;27;19919;-39
2023/02/27 04:53:51;;;;;;;;;;;;;;;;;;4235322;27;19923;-35
2023/02/27 04:55:52;;;;;;;;;;;;;;;;;;4248062;27;19919;-36
2023/02/27 04:57:53;;;;;;;;;;;;;;;;;;4238536;27;19927;-36
2023/02/27 04:59:54;;;;;;;;;;;;;;;;;;4244107;27;19916;-36
2023/02/27 05:01:55;;;;;;;;;;;;;;;;;;4234077;27;20302;-35
2023/02/27 05:03:56;;;;;;;;;;;;;;;;;;4247706;27;19959;-37
2023/02/27 05:05:57;;;;;;;;;;;;;;;;;;4248154;27;19992;-36
2023/02/27 05:07:58;;;;;;;;;;;;;;;;;;4248133;27;19919;-37
2023/02/27 05:09:59;;;;;;;;;;;;;;;;;;4233778;27;20004;-35
2023/02/27 05:12:00;;;;;;;;;;;;;;;;;;4244085;27;19915;-35
2023/02/27 05:14:01;;;;;;;;;;;;;;;;;;4238055;27;20358;-36
2023/02/27 05:16:02;;;;;;;;;;;;;;;;;;4248076;27;20286;-36
2023/02/27 05:18:03;;;;;;;;;;;;;;;;;;4229721;28;19915;-35
2023/02/27 05:20:06;;;;;;;;;;;;;;;;;;4233091;27;20287;-36
2023/02/27 05:22:07;;;;;;;;;;;;;;;;;;4241637;27;19920;-37
2023/02/27 05:24:08;;;;;;;;;;;;;;;;;;4239606;27;20021;-36
2023/02/27 05:26:10;;;;;;;;;;;;;;;;;;4247838;27;19923;-36
2023/02/27 05:28:11;;;;;;;;;;;;;;;;;;4247567;27;19942;-36
2023/02/27 05:30:12;;;;;;;;;;;;;;;;;;4231699;27;19916;-35
2023/02/27 05:32:13;;;;;;;;;;;;;;;;;;4221248;28;20007;-35
2023/02/27 05:34:15;;;;;;;;;;;;;;;;;;4247276;27;19923;-37
2023/02/27 05:36:16;;;;;;;;;;;;;;;;;;4233651;27;20431;-36
2023/02/27 05:38:18;;;;;;;;;;;;;;;;;;4243507;27;19920;-37
2023/02/27 05:40:19;;;;;;;;;;;;;;;;;;4238089;27;19920;-36
2023/02/27 05:42:20;;;;;;;;;;;;;;;;;;4247541;27;19919;-36
2023/02/27 05:44:22;;;;;;;;;;;;;;;;;;4247406;27;20365;-40
2023/02/27 05:46:23;;;;;;;;;;;;;;;;;;4233837;27;19916;-36
2023/02/27 05:48:25;;;;;;;;;;;;;;;;;;4247659;27;19916;-36
2023/02/27 05:50:26;;;;;;;;;;;;;;;;;;4237051;27;20371;-36
2023/02/27 05:52:27;;;;;;;;;;;;;;;;;;4243321;27;20403;-36
2023/02/27 05:54:28;;;;;;;;;;;;;;;;;;4228825;28;19924;-37
2023/02/27 05:56:29;;;;;;;;;;;;;;;;;;4229251;28;19930;-36
2023/02/27 05:58:30;;;;;;;;;;;;;;;;;;4247546;27;19977;-36
2023/02/27 06:00:31;;;;;;;;;;;;;;;;;;4226480;28;19923;-35
2023/02/27 06:02:32;;;;;;;;;;;;;;;;;;4241947;27;19919;-36
2023/02/27 06:04:33;;;;;;;;;;;;;;;;;;4213549;28;19915;-36
2023/02/27 06:06:35;;;;;;;;;;;;;;;;;;4243841;27;19926;-37
2023/02/27 06:08:36;;;;;;;;;;;;;;;;;;4234941;27;19926;-38
2023/02/27 06:10:37;;;;;;;;;;;;;;;;;;4241909;27;19920;-36
2023/02/27 06:12:38;;;;;;;;;;;;;;;;;;4241787;27;19924;-36
2023/02/27 06:14:40;;;;;;;;;;;;;;;;;;4226665;28;20496;-36
2023/02/27 06:16:41;;;;;;;;;;;;;;;;;;4228094;28;19923;-36
2023/02/27 06:18:42;;;;;;;;;;;;;;;;;;4228288;28;19923;-37
2023/02/27 06:20:43;;;;;;;;;;;;;;;;;;4229067;28;20303;-36
2023/02/27 06:22:44;;;;;;;;;;;;;;;;;;4244992;27;19919;-36
2023/02/27 06:24:45;;;;;;;;;;;;;;;;;;4244577;28;19922;-36
2023/02/27 06:26:46;;;;;;;;;;;;;;;;;;4226805;28;20317;-39
2023/02/27 06:28:48;;;;;;;;;;;;;;;;;;4240652;28;19920;-38
2023/02/27 06:30:49;;;;;;;;;;;;;;;;;;4213874;28;19923;-38
2023/02/27 06:32:50;;;;;;;;;;;;;;;;;;4245070;28;19919;-36
2023/02/27 06:34:52;;;;;;;;;;;;;;;;;;4226143;28;19923;-37
2023/02/27 06:36:52;;;;;;;;;;;;;;;;;;4246022;27;19923;-37
2023/02/27 06:38:54;;;;;;;;;;;;;;;;;;4247988;27;19919;-37
2023/02/27 06:40:55;;;;;;;;;;;;;;;;;;4248320;27;19919;-39
2023/02/27 06:42:56;;;;;;;;;;;;;;;;;;4245469;27;20305;-37
2023/02/27 06:44:57;;;;;;;;;;;;;;;;;;4243480;27;19979;-38
2023/02/27 06:46:58;;;;;;;;;;;;;;;;;;4220218;28;19920;-37
2023/02/27 06:48:59;;;;;;;;;;;;;;;;;;4230363;28;20379;-36
2023/02/27 06:51:00;;;;;;;;;;;;;;;;;;4238993;27;19979;-37
2023/02/27 06:53:02;;;;;;;;;;;;;;;;;;4245265;27;19915;-36
2023/02/27 06:55:03;;;;;;;;;;;;;;;;;;4229383;28;20398;-36
2023/02/27 06:57:04;;;;;;;;;;;;;;;;;;4229869;28;19916;-36
2023/02/27 06:59:05;;;;;;;;;;;;;;;;;;4215449;28;20001;-36
2023/02/27 07:01:06;;;;;;;;;;;;;;;;;;4239610;27;19927;-38
2023/02/27 07:03:08;;;;;;;;;;;;;;;;;;4220549;28;19922;-37
2023/02/27 07:05:10;;;;;;;;;;;;;;;;;;4233743;27;19919;-36
2023/02/27 07:07:11;;;;;;;;;;;;;;;;;;4217946;28;19969;-38
2023/02/27 07:09:12;;;;;;;;;;;;;;;;;;4228665;27;19924;-36
2023/02/27 07:11:14;;;;;;;;;;;;;;;;;;4234922;27;19923;-39
2023/02/27 07:13:15;;;;;;;;;;;;;;;;;;4233215;27;20450;-37
2023/02/27 07:15:16;;;;;;;;;;;;;;;;;;4232499;27;19919;-37
2023/02/27 07:17:18;;;;;;;;;;;;;;;;;;4234130;27;20007;-37
2023/02/27 07:19:19;;;;;;;;;;;;;;;;;;4235333;27;19961;-36
2023/02/27 07:21:20;;;;;;;;;;;;;;;;;;4234037;27;20078;-37
2023/02/27 07:23:21;;;;;;;;;;;;;;;;;;4237210;27;19919;-36
2023/02/27 07:25:22;;;;;;;;;;;;;;;;;;4235102;27;19980;-38
2023/02/27 07:27:23;;;;;;;;;;;;;;;;;;4238218;27;19923;-36
2023/02/27 07:29:24;;;;;;;;;;;;;;;;;;4238615;27;19919;-36
2023/02/27 07:31:25;;;;;;;;;;;;;;;;;;4239564;27;19919;-36
2023/02/27 07:33:26;;;;;;;;;;;;;;;;;;4234317;27;19920;-36
2023/02/27 07:35:27;;;;;;;;;;;;;;;;;;4235316;27;20001;-36
2023/02/27 07:37:28;;;;;;;;;;;;;;;;;;4237843;27;20331;-38
2023/02/27 07:39:29;;;;;;;;;;;;;;;;;;4231499;27;19924;-37
2023/02/27 07:41:30;;;;;;;;;;;;;;;;;;4233597;27;19973;-36
2023/02/27 07:43:34;;;;;;;;;;;;;;;;;;4220429;28;19947;-37
2023/02/27 07:45:35;;;;;;;;;;;;;;;;;;4236901;27;19980;-36
2023/02/27 07:47:36;;;;;;;;;;;;;;;;;;4229125;28;19969;-36
2023/02/27 07:49:37;;;;;;;;;;;;;;;;;;4217390;27;20438;-39
2023/02/27 07:51:38;;;;;;;;;;;;;;;;;;4223674;27;19984;-39
2023/02/27 07:53:40;;;;;;;;;;;;;;;;;;4223099;27;19976;-38
2023/02/27 07:55:41;;;;;;;;;;;;;;;;;;4230483;27;19915;-37
2023/02/27 07:57:42;;;;;;;;;;;;;;;;;;4227766;27;19927;-37
2023/02/27 07:59:43;;;;;;;;;;;;;;;;;;4231695;27;20324;-37
2023/02/27 08:01:44;;;;;;;;;;;;;;;;;;4229753;27;19919;-39
2023/02/27 08:03:45;;;;;;;;;;;;;;;;;;4227160;27;19927;-39
2023/02/27 08:05:46;;;;;;;;;;;;;;;;;;4227590;27;19923;-39
2023/02/27 08:07:47;;;;;;;;;;;;;;;;;;4228660;27;19958;-38
2023/02/27 08:09:49;;;;;;;;;;;;;;;;;;4226794;27;20362;-38
2023/02/27 08:11:50;;;;;;;;;;;;;;;;;;4221498;27;20132;-39
2023/02/27 08:13:51;;;;;;;;;;;;;;;;;;4224963;27;19923;-38
2023/02/27 08:15:53;;;;;;;;;;;;;;;;;;4225258;27;20284;-39
2023/02/27 08:17:54;;;;;;;;;;;;;;;;;;4215778;28;20352;-39
2023/02/27 08:19:55;;;;;;;;;;;;;;;;;;4226302;27;19931;-39
2023/02/27 08:21:56;;;;;;;;;;;;;;;;;;4226731;27;20022;-39
2023/02/27 08:23:57;;;;;;;;;;;;;;;;;;4228289;27;19927;-38
2023/02/27 08:25:58;;;;;;;;;;;;;;;;;;4222348;27;19923;-43
2023/02/27 08:28:17;;;;;;;;;;;;;;;;;;4227065;27;19963;-42
2023/02/27 08:30:36;;;;;;;;;;;;;;;;;;4217995;27;19980;-42
2023/02/27 08:32:55;;;;;;;;;;;;;;;;;;4226393;27;21287;-42
2023/02/27 08:34:56;;;;;;;;;;;;;;;;;;4224315;27;21265;-39
2023/02/27 08:36:58;;;;;;;;;;;;;;;;;;4223744;27;19988;-41
2023/02/27 08:38:58;;;;;;;;;;;;;;;;;;4228635;27;19927;-43
2023/02/27 08:41:18;;;;;;;;;;;;;;;;;;4226996;27;19960;-42
2023/02/27 08:43:21;;;;;;;;;;;;;;;;;;4226776;27;19924;-43
2023/02/27 08:45:22;;;;;;;;;;;;;;;;;;4226752;27;19923;-41
2023/02/27 08:47:24;;;;;;;;;;;;;;;;;;4224208;27;19930;-42
2023/02/27 08:49:25;;;;;;;;;;;;;;;;;;4219790;27;19969;-41
2023/02/27 08:51:26;;;;;;;;;;;;;;;;;;4227147;27;19923;-44
2023/02/27 08:53:28;;;;;;;;;;;;;;;;;;4212596;28;19924;-42
2023/02/27 08:55:29;;;;;;;;;;;;;;;;;;4223929;27;20629;-44
2023/02/27 08:57:30;;;;;;;;;;;;;;;;;;4224873;27;19953;-40
2023/02/27 08:59:31;;;;;;;;;;;;;;;;;;4223046;27;20048;-40
2023/02/27 09:01:33;;;;;;;;;;;;;;;;;;4222247;27;20004;-40
2023/02/27 09:03:36;;;;;;;;;;;;;;;;;;4226486;27;19996;-39
2023/02/27 09:05:37;;;;;;;;;;;;;;;;;;4212923;28;20303;-39
2023/02/27 09:07:38;;;;;;;;;;;;;;;;;;4226115;27;19926;-40
2023/02/27 09:09:39;;;;;;;;;;;;;;;;;;4222989;27;19964;-41
2023/02/27 09:11:40;;;;;;;;;;;;;;;;;;4226292;27;20386;-43
2023/02/27 09:13:41;;;;;;;;;;;;;;;;;;4226132;27;19927;-40
2023/02/27 09:15:42;;;;;;;;;;;;;;;;;;4227918;27;19923;-41
2023/02/27 09:17:43;;;;;;;;;;;;;;;;;;4225645;27;19977;-39
2023/02/27 09:19:44;;;;;;;;;;;;;;;;;;4225850;27;19919;-40
2023/02/27 09:21:46;;;;;;;;;;;;;;;;;;4224859;27;19956;-42
2023/02/27 09:23:47;;;;;;;;;;;;;;;;;;4222201;27;19924;-41
2023/02/27 09:25:48;;;;;;;;;;;;;;;;;;4206073;28;19935;-41
2023/02/27 09:27:49;;;;;;;;;;;;;;;;;;4219402;27;20301;-40
2023/02/27 09:29:54;;;;;;;;;;;;;;;;;;4219486;27;20584;-39
2023/02/27 09:31:55;;;;;;;;;;;;;;;;;;4221739;27;19923;-39
2023/02/27 09:33:56;;;;;;;;;;;;;;;;;;4220967;27;19927;-42
2023/02/27 09:35:57;;;;;;;;;;;;;;;;;;4223804;27;19923;-41
2023/02/27 09:37:58;;;;;;;;;;;;;;;;;;4223318;27;19927;-39
2023/02/27 09:39:59;;;;;;;;;;;;;;;;;;4222714;27;19923;-39
2023/02/27 09:42:00;;;;;;;;;;;;;;;;;;4222248;27;19930;-39
2023/02/27 09:44:01;;;;;;;;;;;;;;;;;;4221650;27;20386;-40
2023/02/27 09:46:02;;;;;;;;;;;;;;;;;;4221140;27;19935;-41
2023/02/27 09:48:03;;;;;;;;;;;;;;;;;;4223079;27;19923;-39
2023/02/27 09:50:04;;;;;;;;;;;;;;;;;;4222318;27;19924;-42
2023/02/27 09:52:05;;;;;;;;;;;;;;;;;;4206964;28;19969;-40
2023/02/27 09:54:06;;;;;;;;;;;;;;;;;;4222040;27;19928;-41
2023/02/27 09:56:07;;;;;;;;;;;;;;;;;;4218756;27;19923;-41
2023/02/27 09:58:09;;;;;;;;;;;;;;;;;;4219789;27;20389;-39
2023/02/27 10:00:10;;;;;;;;;;;;;;;;;;4220660;27;19923;-43
2023/02/27 10:02:11;;;;;;;;;;;;;;;;;;4218240;27;19923;-43
2023/02/27 10:04:12;;;;;;;;;;;;;;;;;;4215781;27;20440;-42
2023/02/27 10:06:13;;;;;;;;;;;;;;;;;;4221673;27;19924;-41
2023/02/27 10:08:14;;;;;;;;;;;;;;;;;;4220299;27;19946;-42
2023/02/27 10:10:15;;;;;;;;;;;;;;;;;;4223854;27;19920;-41
2023/02/27 10:12:16;;;;;;;;;;;;;;;;;;4224218;27;19920;-41
2023/02/27 10:14:17;;;;;;;;;;;;;;;;;;4225672;27;20524;-40
2023/02/27 10:16:19;;;;;;;;;;;;;;;;;;4222548;27;20355;-40
2023/02/27 10:18:20;;;;;;;;;;;;;;;;;;4221719;27;19924;-42
2023/02/27 10:20:20;;;;;;;;;;;;;;;;;;4213161;27;20014;-40
2023/02/27 10:22:22;;;;;;;;;;;;;;;;;;4225552;27;19924;-40
2023/02/27 10:24:23;;;;;;;;;;;;;;;;;;4223829;27;19928;-39
2023/02/27 10:26:25;;;;;;;;;;;;;;;;;;4226616;28;20008;-40
2023/02/27 10:28:26;;;;;;;;;;;;;;;;;;4223563;28;19976;-39
2023/02/27 10:30:28;;;;;;;;;;;;;;;;;;4227353;28;19924;-40
2023/02/27 10:32:29;;;;;;;;;;;;;;;;;;4223244;28;19941;-40
2023/02/27 10:34:30;;;;;;;;;;;;;;;;;;4224559;28;20287;-41
2023/02/27 10:36:31;;;;;;;;;;;;;;;;;;4222068;28;19930;-42
2023/02/27 10:38:51;;;;;;;;;;;;;;;;;;4223415;28;20078;-39
2023/02/27 10:40:52;;;;;;;;;;;;;;;;;;4225104;28;20239;-40
2023/02/27 10:42:53;;;;;;;;;;;;;;;;;;4224070;28;20428;-40
2023/02/27 10:44:54;;;;;;;;;;;;;;;;;;4223492;28;20018;-42
2023/02/27 10:46:56;;;;;;;;;;;;;;;;;;4222453;28;19972;-39
2023/02/27 10:48:59;;;;;;;;;;;;;;;;;;4223376;28;19920;-41
2023/02/27 10:51:00;;;;;;;;;;;;;;;;;;4194714;28;19977;-41
2023/02/27 10:53:01;;;;;;;;;;;;;;;;;;4225366;28;19915;-42
2023/02/27 10:55:02;;;;;;;;;;;;;;;;;;4224516;28;19969;-40
2023/02/27 10:57:04;;;;;;;;;;;;;;;;;;4223636;28;19924;-41
2023/02/27 10:59:05;;;;;;;;;;;;;;;;;;4226055;28;19930;-40
2023/02/27 11:01:06;;;;;;;;;;;;;;;;;;4221023;28;19972;-44
2023/02/27 11:03:07;;;;;;;;;;;;;;;;;;4224065;28;20331;-40
2023/02/27 11:05:08;;;;;;;;;;;;;;;;;;4224938;28;19923;-40
2023/02/27 11:07:10;;;;;;;;;;;;;;;;;;4225605;28;20279;-43
2023/02/27 11:09:11;;;;;;;;;;;;;;;;;;4220031;28;20054;-42
2023/02/27 11:11:12;;;;;;;;;;;;;;;;;;4227148;28;19931;-39
2023/02/27 11:13:14;;;;;;;;;;;;;;;;;;4222537;28;19915;-41
2023/02/27 11:15:15;;;;;;;;;;;;;;;;;;4210218;28;19969;-42
2023/02/27 11:17:16;;;;;;;;;;;;;;;;;;4219353;28;19923;-42
2023/02/27 11:19:17;;;;;;;;;;;;;;;;;;4216981;28;20056;-39
2023/02/27 11:21:19;;;;;;;;;;;;;;;;;;4224887;28;19961;-40
2023/02/27 11:23:19;;;;;;;;;;;;;;;;;;4225374;27;20075;-41
2023/02/27 11:25:21;;;;;;;;;;;;;;;;;;4224730;27;20575;-39
2023/02/27 11:27:25;;;;;;;;;;;;;;;;;;4227953;27;20033;-40
2023/02/27 11:29:27;;;;;;;;;;;;;;;;;;4216993;27;19957;-40
2023/02/27 11:31:29;;;;;;;;;;;;;;;;;;4226450;27;20036;-41
2023/02/27 11:33:30;;;;;;;;;;;;;;;;;;4226250;27;19948;-40
2023/02/27 11:35:31;;;;;;;;;;;;;;;;;;4224881;27;20466;-41
2023/02/27 11:37:33;;;;;;;;;;;;;;;;;;4225838;27;19924;-40
2023/02/27 11:39:33;;;;;;;;;;;;;;;;;;4223464;27;19979;-42
2023/02/27 11:41:36;;;;;;;;;;;;;;;;;;4228021;27;19923;-40
2023/02/27 11:43:38;;;;;;;;;;;;;;;;;;4224688;27;19930;-40
2023/02/27 11:45:40;;;;;;;;;;;;;;;;;;4225502;27;19931;-40
2023/02/27 11:47:42;;;;;;;;;;;;;;;;;;4227045;27;19964;-41
2023/02/27 11:49:44;;;;;;;;;;;;;;;;;;4227015;27;19969;-41
2023/02/27 11:51:45;;;;;;;;;;;;;;;;;;4221792;27;19919;-40
2023/02/27 11:53:46;;;;;;;;;;;;;;;;;;4228887;27;19972;-41
2023/02/27 11:55:47;;;;;;;;;;;;;;;;;;4231176;27;19923;-41
2023/02/27 11:57:49;;;;;;;;;;;;;;;;;;4222844;27;20367;-42
2023/02/27 11:59:50;;;;;;;;;;;;;;;;;;4204958;28;20018;-41
2023/02/27 12:01:51;;;;;;;;;;;;;;;;;;4227418;27;19916;-41
2023/02/27 12:04:11;;;;;;;;;;;;;;;;;;4219381;27;20377;-42
2023/02/27 12:06:12;;;;;;;;;;;;;;;;;;4205577;28;19931;-41
2023/02/27 12:08:13;;;;;;;;;;;;;;;;;;4222327;27;20938;-41
2023/02/27 12:10:14;;;;;;;;;;;;;;;;;;4226432;27;19969;-40
2023/02/27 12:12:15;;;;;;;;;;;;;;;;;;4224927;27;20332;-42
2023/02/27 12:14:16;;;;;;;;;;;;;;;;;;4225446;27;19977;-40
2023/02/27 12:16:18;;;;;;;;;;;;;;;;;;4226949;27;20765;-43
2023/02/27 12:18:19;;;;;;;;;;;;;;;;;;4226734;27;19946;-45
2023/02/27 12:20:20;;;;;;;;;;;;;;;;;;4226843;27;20244;-42
2023/02/27 12:22:21;;;;;;;;;;;;;;;;;;4227541;27;19926;-42
2023/02/27 12:24:22;;;;;;;;;;;;;;;;;;4224930;27;19923;-41
2023/02/27 12:26:23;;;;;;;;;;;;;;;;;;4220371;27;19923;-43
2023/02/27 12:28:24;;;;;;;;;;;;;;;;;;4226606;27;20612;-42
2023/02/27 12:30:25;;;;;;;;;;;;;;;;;;4225018;27;19980;-42
2023/02/27 12:32:27;;;;;;;;;;;;;;;;;;4226714;27;20030;-40
2023/02/27 12:34:28;;;;;;;;;;;;;;;;;;4228511;27;19935;-41
2023/02/27 12:36:28;;;;;;;;;;;;;;;;;;4223209;27;19919;-40
2023/02/27 12:38:29;;;;;;;;;;;;;;;;;;4226825;27;19931;-40
2023/02/27 12:40:30;;;;;;;;;;;;;;;;;;4224340;27;19930;-43
2023/02/27 12:42:31;;;;;;;;;;;;;;;;;;4228206;27;20025;-41
2023/02/27 12:44:32;;;;;;;;;;;;;;;;;;4226941;27;20012;-40
2023/02/27 12:46:35;;;;;;;;;;;;;;;;;;4228203;27;19924;-42
2023/02/27 12:48:36;;;;;;;;;;;;;;;;;;4225562;27;20408;-43
2023/02/27 12:50:37;;;;;;;;;;;;;;;;;;4225606;27;19919;-44
2023/02/27 12:52:39;;;;;;;;;;;;;;;;;;4225212;27;20930;-41
2023/02/27 12:54:39;;;;;;;;;;;;;;;;;;4223027;27;20849;-42
2023/02/27 12:56:41;;;;;;;;;;;;;;;;;;4224979;27;20427;-41
2023/02/27 12:58:41;;;;;;;;;;;;;;;;;;4225789;27;19966;-40
2023/02/27 13:00:44;;;;;;;;;;;;;;;;;;4226607;27;19992;-39
2023/02/27 13:02:45;;;;;;;;;;;;;;;;;;4228503;27;20267;-38
2023/02/27 13:04:46;;;;;;;;;;;;;;;;;;4227856;27;19941;-39
2023/02/27 13:06:48;;;;;;;;;;;;;;;;;;4228388;27;19976;-39
2023/02/27 13:08:49;;;;;;;;;;;;;;;;;;4228689;27;19987;-42
2023/02/27 13:10:50;;;;;;;;;;;;;;;;;;4221384;27;19927;-38
2023/02/27 13:12:51;;;;;;;;;;;;;;;;;;4225571;27;19966;-38
2023/02/27 13:14:52;;;;;;;;;;;;;;;;;;4215866;28;19928;-40
2023/02/27 13:16:53;;;;;;;;;;;;;;;;;;4227543;27;19923;-38
2023/02/27 13:18:55;;;;;;;;;;;;;;;;;;4227264;27;19927;-42
2023/02/27 13:20:55;;;;;;;;;;;;;;;;;;4224110;27;19919;-39
2023/02/27 13:22:56;;;;;;;;;;;;;;;;;;4225900;27;20026;-41
2023/02/27 13:24:57;;;;;;;;;;;;;;;;;;4218666;27;20324;-39
2023/02/27 13:26:58;;;;;;;;;;;;;;;;;;4220332;27;19923;-38
2023/02/27 13:28:59;;;;;;;;;;;;;;;;;;4214033;28;19939;-41
2023/02/27 13:31:02;;;;;;;;;;;;;;;;;;4224557;27;20058;-41
2023/02/27 13:33:03;;;;;;;;;;;;;;;;;;4223484;27;20401;-39
2023/02/27 13:35:05;;;;;;;;;;;;;;;;;;4221641;27;19942;-40
2023/02/27 13:37:06;;;;;;;;;;;;;;;;;;4222393;27;20378;-39
2023/02/27 13:39:07;;;;;;;;;;;;;;;;;;4225099;27;19930;-41
2023/02/27 13:41:08;;;;;;;;;;;;;;;;;;4220996;27;19936;-43
2023/02/27 13:43:09;;;;;;;;;;;;;;;;;;4223975;27;20037;-42
2023/02/27 13:45:13;;;;;;;;;;;;;;;;;;4227612;27;19923;-43
2023/02/27 13:47:13;;;;;;;;;;;;;;;;;;4208827;28;20322;-42
2023/02/27 13:49:15;;;;;;;;;;;;;;;;;;4227020;27;20270;-41
2023/02/27 13:51:16;;;;;;;;;;;;;;;;;;4226963;27;19916;-40